createdAt,value
2023-01-08T00:01:58.441Z,95581.22
2023-01-08T00:04:27.593Z,95558.31
2023-01-08T00:06:55.283Z,95555.16
2023-01-08T00:09:23.068Z,95560.25
2023-01-08T00:11:50.709Z,95547.63
2023-01-08T00:14:18.442Z,95539.72
2023-01-08T00:16:46.167Z,95549.75
2023-01-08T00:19:14.147Z,95522.31
2023-01-08T00:21:43.228Z,95529.41
2023-01-08T00:24:10.888Z,95470.75
2023-01-08T00:26:38.552Z,95526.13
2023-01-08T00:29:06.409Z,95511.56
2023-01-08T00:31:34.185Z,95499.25
2023-01-08T00:34:01.912Z,95502.66
2023-01-08T00:36:29.631Z,95464.66
2023-01-08T00:39:00.200Z,95530.00
2023-01-08T00:41:27.903Z,95506.06
2023-01-08T00:43:55.600Z,95505.81
2023-01-08T00:46:23.355Z,95504.66
2023-01-08T00:48:51.031Z,95497.56
2023-01-08T00:51:18.658Z,95471.78
2023-01-08T00:53:46.321Z,95460.56
2023-01-08T00:56:15.344Z,95361.91
2023-01-08T00:58:43.074Z,95415.56
2023-01-08T01:01:12.033Z,95486.59
2023-01-08T01:03:40.007Z,95496.91
2023-01-08T01:06:08.640Z,95495.66
2023-01-08T01:08:36.451Z,95483.63
2023-01-08T01:11:07.835Z,95505.72
2023-01-08T01:13:37.047Z,95498.94
2023-01-08T01:16:05.134Z,95409.28
2023-01-08T01:18:32.866Z,95512.63
2023-01-08T01:21:00.567Z,95517.47
2023-01-08T01:23:28.219Z,95481.72
2023-01-08T01:25:55.874Z,95511.94
2023-01-08T01:28:23.601Z,95508.13
2023-01-08T01:30:57.180Z,95503.47
2023-01-08T01:33:24.980Z,95487.88
2023-01-08T01:36:00.703Z,95470.97
2023-01-08T01:38:28.417Z,95511.25
2023-01-08T01:40:56.139Z,95481.25
2023-01-08T01:43:38.319Z,95501.47
2023-01-08T01:46:19.425Z,95526.28
2023-01-08T01:48:50.452Z,95522.56
2023-01-08T01:51:18.409Z,95509.25
2023-01-08T01:53:46.563Z,95496.38
2023-01-08T01:56:14.303Z,95476.31
2023-01-08T01:58:41.989Z,95459.34
2023-01-08T02:01:11.730Z,95475.81
2023-01-08T02:03:41.122Z,95459.81
2023-01-08T02:06:20.479Z,95474.13
2023-01-08T02:08:57.541Z,95481.56
2023-01-08T02:11:31.529Z,95484.28
2023-01-08T02:14:06.870Z,95433.97
2023-01-08T02:16:44.225Z,95465.56
2023-01-08T02:19:22.606Z,95460.72
2023-01-08T02:22:02.812Z,95463.88
2023-01-08T02:24:44.100Z,95452.94
2023-01-08T02:27:15.228Z,95448.19
2023-01-08T02:29:43.142Z,95449.19
2023-01-08T02:32:10.986Z,95419.44
2023-01-08T02:34:38.689Z,95430.50
2023-01-08T02:37:06.611Z,95351.44
2023-01-08T02:39:44.796Z,95434.75
2023-01-08T02:42:21.800Z,95433.44
2023-01-08T02:44:58.190Z,95440.53
2023-01-08T02:47:31.723Z,95435.91
2023-01-08T02:50:11.707Z,95443.59
2023-01-08T02:52:45.419Z,95441.75
2023-01-08T02:55:13.943Z,95415.38
2023-01-08T02:57:43.222Z,95434.00
2023-01-08T03:00:12.666Z,95434.66
2023-01-08T03:02:42.421Z,95437.34
2023-01-08T03:05:20.931Z,95401.72
2023-01-08T03:07:49.032Z,95416.50
2023-01-08T03:10:17.046Z,95413.13
2023-01-08T03:12:53.789Z,95397.88
2023-01-08T03:15:27.600Z,95407.13
2023-01-08T03:17:58.445Z,95402.84
2023-01-08T03:20:26.279Z,95403.63
2023-01-08T03:22:56.862Z,95393.38
2023-01-08T03:25:27.614Z,95393.38
2023-01-08T03:28:03.396Z,95390.22
2023-01-08T03:30:31.935Z,95305.19
2023-01-08T03:33:01.573Z,95392.91
2023-01-08T03:35:31.108Z,95393.16
2023-01-08T03:38:04.400Z,95268.78
2023-01-08T03:40:36.461Z,95369.56
2023-01-08T03:43:05.593Z,95383.09
2023-01-08T03:45:35.118Z,95363.25
2023-01-08T03:48:04.498Z,95342.06
2023-01-08T03:50:33.285Z,95347.94
2023-01-08T03:53:01.183Z,95369.25
2023-01-08T03:55:28.888Z,95364.97
2023-01-08T03:57:56.554Z,95332.16
2023-01-08T04:00:25.822Z,95340.84
2023-01-08T04:02:53.560Z,95317.72
2023-01-08T04:05:21.212Z,95346.66
2023-01-08T04:07:48.841Z,95288.63
2023-01-08T04:10:16.560Z,95263.28
2023-01-08T04:12:44.571Z,95348.28
2023-01-08T04:15:12.696Z,95341.06
2023-01-08T04:17:41.743Z,95349.41
2023-01-08T04:20:10.310Z,95330.13
2023-01-08T04:22:37.970Z,95345.34
2023-01-08T04:25:06.297Z,95353.25
2023-01-08T04:27:34.232Z,95314.25
2023-01-08T04:30:01.847Z,95340.50
2023-01-08T04:32:29.464Z,95294.06
2023-01-08T04:34:58.404Z,95298.34
2023-01-08T04:37:26.087Z,95308.81
2023-01-08T04:39:53.732Z,95316.91
2023-01-08T04:42:21.364Z,95320.31
2023-01-08T04:44:48.968Z,95319.63
2023-01-08T04:47:16.628Z,95316.94
2023-01-08T04:49:44.318Z,95293.59
2023-01-08T04:52:13.287Z,95257.66
2023-01-08T04:54:40.948Z,95305.41
2023-01-08T04:57:09.607Z,95302.00
2023-01-08T04:59:37.261Z,95169.81
2023-01-08T05:02:05.027Z,95296.19
2023-01-08T05:04:32.724Z,95209.66
2023-01-08T05:07:00.496Z,95319.50
2023-01-08T05:09:29.507Z,95312.50
2023-01-08T05:11:57.275Z,95231.31
2023-01-08T05:14:24.883Z,95252.56
2023-01-08T05:16:52.536Z,95318.97
2023-01-08T05:19:20.213Z,95313.88
2023-01-08T05:21:47.951Z,95194.03
2023-01-08T05:24:15.723Z,95198.75
2023-01-08T05:26:44.764Z,95297.63
2023-01-08T05:29:12.398Z,95301.81
2023-01-08T05:31:40.007Z,95186.25
2023-01-08T05:34:07.704Z,95299.91
2023-01-08T05:36:35.351Z,95184.22
2023-01-08T05:39:02.978Z,95188.38
2023-01-08T05:41:30.768Z,95276.69
2023-01-08T05:43:59.725Z,95293.81
2023-01-08T05:46:27.402Z,95296.06
2023-01-08T05:48:55.024Z,95266.44
2023-01-08T05:51:22.613Z,95168.66
2023-01-08T05:53:50.251Z,95305.16
2023-01-08T05:56:17.984Z,95177.91
2023-01-08T05:58:45.634Z,95224.00
2023-01-08T06:01:16.776Z,95312.06
2023-01-08T06:03:45.036Z,95309.47
2023-01-08T06:06:13.645Z,95254.41
2023-01-08T06:08:41.307Z,95315.00
2023-01-08T06:11:10.050Z,95230.63
2023-01-08T06:13:38.716Z,95312.63
2023-01-08T06:16:06.900Z,95251.38
2023-01-08T06:18:35.958Z,95305.41
2023-01-08T06:21:05.395Z,95315.22
2023-01-08T06:23:33.254Z,95189.28
2023-01-08T06:26:04.029Z,95243.00
2023-01-08T06:28:32.414Z,95190.31
2023-01-08T06:31:00.455Z,95297.88
2023-01-08T06:33:28.197Z,95310.03
2023-01-08T06:36:01.231Z,95293.59
2023-01-08T06:38:31.957Z,95299.31
2023-01-08T06:40:59.648Z,95233.53
2023-01-08T06:43:27.273Z,95232.97
2023-01-08T06:45:55.693Z,95192.44
2023-01-08T06:48:23.390Z,95314.44
2023-01-08T06:50:51.083Z,95243.78
2023-01-08T06:53:20.626Z,95333.94
2023-01-08T06:55:48.675Z,95308.59
2023-01-08T06:58:16.329Z,95286.69
2023-01-08T07:00:44.505Z,95324.97
2023-01-08T07:03:12.393Z,95189.72
2023-01-08T07:05:40.089Z,95325.06
2023-01-08T07:08:07.872Z,95262.34
2023-01-08T07:10:36.912Z,95331.50
2023-01-08T07:13:04.618Z,95324.25
2023-01-08T07:15:32.280Z,95331.63
2023-01-08T07:17:59.905Z,95339.06
2023-01-08T07:20:27.584Z,95303.53
2023-01-08T07:22:55.304Z,95323.13
2023-01-08T07:25:24.683Z,95325.94
2023-01-08T07:27:54.907Z,95280.19
2023-01-08T07:30:29.743Z,95215.31
2023-01-08T07:33:02.146Z,95297.63
2023-01-08T07:35:30.337Z,95304.19
2023-01-08T07:37:58.295Z,95307.28
2023-01-08T07:40:26.114Z,95307.03
2023-01-08T07:43:02.025Z,95305.06
2023-01-08T07:45:30.584Z,95317.59
2023-01-08T07:47:59.090Z,95204.47
2023-01-08T07:50:27.321Z,95316.34
2023-01-08T07:52:58.433Z,95296.19
2023-01-08T07:55:26.327Z,95317.22
2023-01-08T07:57:54.000Z,95310.69
2023-01-08T08:00:23.286Z,95289.09
2023-01-08T08:02:51.135Z,95277.13
2023-01-08T08:05:18.929Z,95243.09
2023-01-08T08:07:46.639Z,95295.63
2023-01-08T08:10:14.351Z,95205.31
2023-01-08T08:12:42.023Z,95301.94
2023-01-08T08:15:11.043Z,95202.00
2023-01-08T08:17:40.041Z,95274.06
2023-01-08T08:20:09.439Z,95289.91
2023-01-08T08:22:37.094Z,95320.50
2023-01-08T08:25:05.221Z,95325.50
2023-01-08T08:27:32.945Z,95325.00
2023-01-08T08:30:00.603Z,95314.28
2023-01-08T08:32:28.286Z,95298.06
2023-01-08T08:34:57.333Z,95300.88
2023-01-08T08:37:25.085Z,95308.50
2023-01-08T08:39:52.969Z,95318.94
2023-01-08T08:42:20.714Z,95210.44
2023-01-08T08:44:48.411Z,95307.09
2023-01-08T08:47:16.207Z,95210.75
2023-01-08T08:49:43.926Z,95283.47
2023-01-08T08:52:13.800Z,95292.78
2023-01-08T08:54:46.208Z,95283.47
2023-01-08T08:57:13.936Z,95309.69
2023-01-08T08:59:41.631Z,95216.91
2023-01-08T09:02:11.272Z,95303.06
2023-01-08T09:04:39.216Z,95304.94
2023-01-08T09:07:07.025Z,95306.34
2023-01-08T09:09:36.107Z,95306.72
2023-01-08T09:12:04.158Z,95312.75
2023-01-08T09:14:31.919Z,95250.13
2023-01-08T09:16:59.635Z,95335.13
2023-01-08T09:19:27.369Z,95269.78
2023-01-08T09:21:55.040Z,95309.06
2023-01-08T09:24:22.691Z,95330.63
2023-01-08T09:26:54.131Z,95314.09
2023-01-08T09:29:22.193Z,95181.88
2023-01-08T09:31:50.133Z,95325.59
2023-01-08T09:34:18.374Z,95320.59
2023-01-08T09:36:46.335Z,95315.94
2023-01-08T09:39:14.044Z,95332.78
2023-01-08T09:41:45.115Z,95322.78
2023-01-08T09:44:19.216Z,95321.56
2023-01-08T09:46:48.955Z,95315.66
2023-01-08T09:49:20.808Z,95327.75
2023-01-08T09:51:52.379Z,95310.16
2023-01-08T09:54:27.691Z,95304.28
2023-01-08T09:56:55.986Z,95285.56
2023-01-08T09:59:31.313Z,95262.63
2023-01-08T10:02:02.652Z,95270.75
2023-01-08T10:04:30.921Z,95272.34
2023-01-08T10:07:12.481Z,95260.81
2023-01-08T10:09:41.641Z,95210.88
2023-01-08T10:12:13.945Z,95207.75
2023-01-08T10:14:58.351Z,95217.41
2023-01-08T10:17:35.677Z,95267.34
2023-01-08T10:20:04.559Z,95214.78
2023-01-08T10:22:34.790Z,95261.56
2023-01-08T10:25:09.491Z,95274.81
2023-01-08T10:27:46.909Z,95162.97
2023-01-08T10:30:21.556Z,95264.75
2023-01-08T10:32:54.280Z,95138.53
2023-01-08T10:36:01.230Z,95264.84
2023-01-08T10:38:33.579Z,95265.69
2023-01-08T10:41:03.023Z,95259.50
2023-01-08T10:43:35.443Z,95259.03
2023-01-08T10:46:07.685Z,95246.28
2023-01-08T10:48:39.244Z,95222.59
2023-01-08T10:51:14.433Z,95260.50
2023-01-08T10:53:42.523Z,95244.66
2023-01-08T10:56:20.495Z,95244.41
2023-01-08T10:58:48.615Z,95245.03
2023-01-08T11:01:23.295Z,95260.63
2023-01-08T11:03:52.459Z,95253.41
2023-01-08T11:06:23.599Z,95211.72
2023-01-08T11:08:53.904Z,95223.78
2023-01-08T11:11:22.318Z,95247.25
2023-01-08T11:13:57.546Z,95245.19
2023-01-08T11:16:35.021Z,95248.31
2023-01-08T11:19:02.802Z,95249.53
2023-01-08T11:21:32.198Z,95230.25
2023-01-08T11:24:11.349Z,95229.66
2023-01-08T11:26:41.521Z,95177.47
2023-01-08T11:29:15.928Z,95133.25
2023-01-08T11:31:53.264Z,95186.47
2023-01-08T11:34:27.636Z,95176.19
2023-01-08T11:37:03.278Z,95213.09
2023-01-08T11:39:31.217Z,95184.00
2023-01-08T11:42:14.473Z,95182.69
2023-01-08T11:44:53.405Z,95176.78
2023-01-08T11:47:30.567Z,95154.97
2023-01-08T11:50:18.003Z,95160.72
2023-01-08T11:52:56.603Z,95158.72
2023-01-08T11:55:33.186Z,95154.00
2023-01-08T11:58:15.133Z,95159.81
2023-01-08T12:00:58.274Z,95166.63
2023-01-08T12:03:34.674Z,95165.69
2023-01-08T12:06:14.216Z,95086.94
2023-01-08T12:08:51.606Z,95173.16
2023-01-08T12:11:26.809Z,95100.94
2023-01-08T12:14:13.529Z,94996.34
2023-01-08T12:16:56.527Z,95147.97
2023-01-08T12:19:42.381Z,95131.56
2023-01-08T12:22:25.283Z,95041.19
2023-01-08T12:25:22.003Z,95073.88
2023-01-08T12:28:03.115Z,95160.47
2023-01-08T12:30:43.808Z,95151.25
2023-01-08T12:33:16.880Z,95055.59
2023-01-08T12:35:50.277Z,95035.06
2023-01-08T12:38:23.586Z,95129.94
2023-01-08T12:40:55.959Z,95136.69
2023-01-08T12:43:27.270Z,95126.78
2023-01-08T12:45:58.982Z,95029.22
2023-01-08T12:48:29.561Z,95053.34
2023-01-08T12:51:05.205Z,95101.09
2023-01-08T12:53:44.704Z,95063.63
2023-01-08T12:56:17.329Z,95071.38
2023-01-08T12:59:00.536Z,95087.69
2023-01-08T13:01:35.985Z,94988.84
2023-01-08T13:04:06.107Z,94969.25
2023-01-08T13:06:36.371Z,95084.88
2023-01-08T13:09:04.903Z,95086.78
2023-01-08T13:11:36.991Z,95069.38
2023-01-08T13:14:07.139Z,95065.28
2023-01-08T13:16:39.469Z,95057.56
2023-01-08T13:19:08.845Z,95057.91
2023-01-08T13:21:40.205Z,95080.03
2023-01-08T13:24:34.164Z,94983.38
2023-01-08T13:27:23.980Z,94945.09
2023-01-08T13:29:52.975Z,94990.91
2023-01-08T13:32:37.728Z,95061.22
2023-01-08T13:35:24.695Z,95043.72
2023-01-08T13:38:06.457Z,95052.00
2023-01-08T13:40:53.357Z,95022.72
2023-01-08T13:43:23.496Z,95026.38
2023-01-08T13:46:09.098Z,94988.50
2023-01-08T13:48:39.987Z,95046.00
2023-01-08T13:51:20.622Z,94946.69
2023-01-08T13:53:49.751Z,95035.28
2023-01-08T13:56:17.510Z,94914.66
2023-01-08T13:58:47.916Z,95024.06
2023-01-08T14:01:16.032Z,94976.88
2023-01-08T14:03:47.362Z,94969.44
2023-01-08T14:06:18.833Z,95017.34
2023-01-08T14:08:59.048Z,94977.03
2023-01-08T14:11:31.792Z,95024.81
2023-01-08T14:14:00.025Z,94958.63
2023-01-08T14:16:27.952Z,94918.91
2023-01-08T14:19:01.251Z,95024.88
2023-01-08T14:21:28.948Z,95031.13
2023-01-08T14:23:58.162Z,94925.13
2023-01-08T14:26:30.686Z,94974.91
2023-01-08T14:28:58.705Z,94925.53
2023-01-08T14:31:28.199Z,95052.28
2023-01-08T14:33:58.394Z,95002.78
2023-01-08T14:36:27.330Z,95005.97
2023-01-08T14:38:54.987Z,95057.81
2023-01-08T14:41:53.171Z,95055.19
2023-01-08T14:44:29.162Z,95049.44
2023-01-08T14:47:00.683Z,95007.00
2023-01-08T14:49:31.464Z,95015.56
2023-01-08T14:52:01.338Z,95034.25
2023-01-08T14:54:32.644Z,94993.13
2023-01-08T14:57:03.535Z,95004.41
2023-01-08T14:59:34.874Z,94985.41
2023-01-08T15:02:04.672Z,95035.31
2023-01-08T15:04:32.541Z,94957.16
2023-01-08T15:07:08.800Z,94962.09
2023-01-08T15:09:37.376Z,95038.72
2023-01-08T15:12:08.513Z,95031.44
2023-01-08T15:14:37.236Z,94981.81
2023-01-08T15:17:10.292Z,95004.63
2023-01-08T15:19:43.093Z,94882.72
2023-01-08T15:22:18.052Z,94986.88
2023-01-08T15:24:58.110Z,94855.41
2023-01-08T15:27:28.151Z,94995.22
2023-01-08T15:30:00.179Z,94995.72
2023-01-08T15:32:31.067Z,94882.66
2023-01-08T15:35:25.882Z,95000.88
2023-01-08T15:37:53.547Z,94981.91
2023-01-08T15:40:21.265Z,94913.06
2023-01-08T15:43:07.706Z,94830.66
2023-01-08T15:45:35.628Z,94982.94
2023-01-08T15:48:03.750Z,94975.97
2023-01-08T15:50:36.605Z,94960.97
2023-01-08T15:53:07.422Z,94946.88
2023-01-08T15:55:35.310Z,94916.16
2023-01-08T15:58:04.593Z,94974.41
2023-01-08T16:00:33.939Z,94978.34
2023-01-08T16:03:02.478Z,94917.97
2023-01-08T16:05:30.723Z,94842.66
2023-01-08T16:07:58.458Z,94841.03
2023-01-08T16:10:26.500Z,94934.53
2023-01-08T16:12:54.199Z,94927.97
2023-01-08T16:15:24.152Z,94966.50
2023-01-08T16:17:52.078Z,94936.19
2023-01-08T16:20:19.871Z,94959.06
2023-01-08T16:22:47.664Z,94928.31
2023-01-08T16:25:15.525Z,94948.63
2023-01-08T16:27:43.702Z,94924.41
2023-01-08T16:30:16.398Z,94821.31
2023-01-08T16:32:46.630Z,94938.06
2023-01-08T16:35:17.868Z,94812.47
2023-01-08T16:37:45.573Z,94793.66
2023-01-08T16:40:14.956Z,94747.03
2023-01-08T16:42:42.643Z,94842.19
2023-01-08T16:45:11.039Z,94853.22
2023-01-08T16:47:39.844Z,94695.50
2023-01-08T16:50:11.575Z,94782.88
2023-01-08T16:52:39.763Z,94775.28
2023-01-08T16:55:08.423Z,94750.81
2023-01-08T16:57:37.281Z,94846.88
2023-01-08T17:00:06.396Z,94775.75
2023-01-08T17:02:34.178Z,94839.75
2023-01-08T17:05:01.898Z,94836.00
2023-01-08T17:07:30.961Z,94642.06
2023-01-08T17:09:58.681Z,94716.47
2023-01-08T17:12:26.407Z,94723.06
2023-01-08T17:14:54.177Z,94707.13
2023-01-08T17:17:21.889Z,94709.25
2023-01-08T17:19:49.658Z,94710.44
2023-01-08T17:22:17.437Z,94769.31
2023-01-08T17:24:46.472Z,94721.22
2023-01-08T17:27:14.201Z,94810.97
2023-01-08T17:29:41.868Z,94808.31
2023-01-08T17:32:10.034Z,94829.06
2023-01-08T17:34:37.677Z,94814.31
2023-01-08T17:37:05.354Z,94829.88
2023-01-08T17:39:33.112Z,94715.66
2023-01-08T17:42:19.389Z,94827.59
2023-01-08T17:44:47.361Z,94753.50
2023-01-08T17:47:15.194Z,94826.34
2023-01-08T17:49:42.908Z,94704.84
2023-01-08T17:52:12.631Z,94808.91
2023-01-08T17:54:49.286Z,94811.88
2023-01-08T17:57:18.399Z,94784.31
2023-01-08T17:59:46.468Z,94801.25
2023-01-08T18:02:19.126Z,94794.72
2023-01-08T18:04:46.810Z,94791.06
2023-01-08T18:07:16.751Z,94639.13
2023-01-08T18:09:44.974Z,94634.19
2023-01-08T18:12:12.815Z,94774.84
2023-01-08T18:14:41.953Z,94771.72
2023-01-08T18:17:09.651Z,94754.00
2023-01-08T18:19:37.356Z,94654.38
2023-01-08T18:22:05.000Z,94741.19
2023-01-08T18:24:34.082Z,94554.25
2023-01-08T18:27:01.942Z,94736.19
2023-01-08T18:29:29.772Z,94716.47
2023-01-08T18:31:58.796Z,94731.22
2023-01-08T18:34:27.006Z,94730.16
2023-01-08T18:36:54.715Z,94726.28
2023-01-08T18:39:22.473Z,94738.63
2023-01-08T18:42:07.498Z,94744.41
2023-01-08T18:44:35.173Z,94723.38
2023-01-08T18:47:04.261Z,94628.13
2023-01-08T18:49:31.901Z,94733.22
2023-01-08T18:51:59.822Z,94705.34
2023-01-08T18:54:27.541Z,94632.75
2023-01-08T18:56:55.195Z,94703.47
2023-01-08T18:59:24.348Z,94657.25
2023-01-08T19:01:52.954Z,94709.25
2023-01-08T19:04:22.087Z,94672.53
2023-01-08T19:06:49.700Z,94672.31
2023-01-08T19:09:17.683Z,94677.47
2023-01-08T19:11:46.018Z,94681.50
2023-01-08T19:14:14.704Z,94589.25
2023-01-08T19:16:48.500Z,94613.41
2023-01-08T19:19:20.965Z,94672.16
2023-01-08T19:21:50.558Z,94694.38
2023-01-08T19:24:18.476Z,94666.41
2023-01-08T19:26:46.383Z,94597.78
2023-01-08T19:29:14.392Z,94489.66
2023-01-08T19:31:42.354Z,94646.00
2023-01-08T19:34:11.512Z,94633.53
2023-01-08T19:36:39.385Z,94639.19
2023-01-08T19:39:11.061Z,94594.66
2023-01-08T19:41:56.244Z,94631.88
2023-01-08T19:44:24.058Z,94596.25
2023-01-08T19:46:51.758Z,94620.63
2023-01-08T19:49:19.410Z,94581.91
2023-01-08T19:51:49.314Z,94604.03
2023-01-08T19:54:23.811Z,94635.09
2023-01-08T19:56:51.723Z,94518.16
2023-01-08T19:59:19.606Z,94609.28
2023-01-08T20:01:51.352Z,94508.22
2023-01-08T20:04:22.018Z,94503.50
2023-01-08T20:07:01.185Z,94501.31
2023-01-08T20:09:33.200Z,94384.53
2023-01-08T20:12:08.118Z,94550.09
2023-01-08T20:14:36.677Z,94392.38
2023-01-08T20:17:05.389Z,94412.00
2023-01-08T20:19:34.470Z,94566.22
2023-01-08T20:22:02.289Z,94403.25
2023-01-08T20:24:31.602Z,94440.38
2023-01-08T20:26:59.385Z,94497.53
2023-01-08T20:29:29.856Z,94575.44
2023-01-08T20:31:59.508Z,94508.22
2023-01-08T20:34:27.977Z,94551.84
2023-01-08T20:36:56.337Z,94521.22
2023-01-08T20:39:24.319Z,94555.41
2023-01-08T20:42:01.004Z,94556.69
2023-01-08T20:44:31.920Z,94529.97
2023-01-08T20:46:59.943Z,94559.63
2023-01-08T20:49:27.997Z,94543.06
2023-01-08T20:51:59.784Z,94396.09
2023-01-08T20:54:28.979Z,94568.47
2023-01-08T20:56:58.707Z,94491.06
2023-01-08T20:59:27.104Z,94551.50
2023-01-08T21:01:55.210Z,94451.00
2023-01-08T21:04:24.536Z,94548.16
2023-01-08T21:06:52.444Z,94543.03
2023-01-08T21:09:20.150Z,94447.44
2023-01-08T21:11:47.913Z,94487.34
2023-01-08T21:14:16.992Z,94477.19
2023-01-08T21:16:44.828Z,94487.09
2023-01-08T21:19:14.660Z,94542.16
2023-01-08T21:21:42.307Z,94430.31
2023-01-08T21:24:12.849Z,94402.25
2023-01-08T21:26:40.796Z,94527.03
2023-01-08T21:29:09.351Z,94442.44
2023-01-08T21:31:41.427Z,94523.84
2023-01-08T21:34:10.264Z,94428.00
2023-01-08T21:36:39.178Z,94502.06
2023-01-08T21:39:06.972Z,94430.97
2023-01-08T21:41:52.025Z,94520.19
2023-01-08T21:44:39.108Z,94516.91
2023-01-08T21:47:10.055Z,94484.31
2023-01-08T21:49:37.957Z,94490.88
2023-01-08T21:52:24.225Z,94516.97
2023-01-08T21:54:52.364Z,94509.25
2023-01-08T21:57:20.174Z,94513.09
2023-01-08T21:59:50.100Z,94502.47
2023-01-08T22:02:21.700Z,94421.50
2023-01-08T22:04:49.395Z,94307.31
2023-01-08T22:07:17.317Z,94483.13
2023-01-08T22:09:45.161Z,94378.16
2023-01-08T22:12:14.001Z,94470.44
2023-01-08T22:14:41.703Z,94469.63
2023-01-08T22:17:10.112Z,94319.25
2023-01-08T22:19:40.028Z,94452.94
2023-01-08T22:22:10.740Z,94462.03
2023-01-08T22:24:39.285Z,94444.56
2023-01-08T22:27:07.835Z,94393.78
2023-01-08T22:29:35.571Z,94422.63
2023-01-08T22:32:03.199Z,94317.03
2023-01-08T22:34:31.995Z,94386.97
2023-01-08T22:37:01.363Z,94278.38
2023-01-08T22:39:30.261Z,94387.47
2023-01-08T22:41:58.132Z,94331.88
2023-01-08T22:44:25.789Z,94287.34
2023-01-08T22:46:53.425Z,94282.47
2023-01-08T22:49:21.098Z,94270.69
2023-01-08T22:51:48.789Z,94373.91
2023-01-08T22:54:18.226Z,94273.22
2023-01-08T22:56:45.908Z,94205.19
2023-01-08T22:59:16.631Z,94236.03
2023-01-08T23:01:44.337Z,94292.88
2023-01-08T23:04:12.130Z,94207.53
2023-01-08T23:06:39.855Z,94358.16
2023-01-08T23:09:07.671Z,94231.81
2023-01-08T23:11:38.087Z,94302.22
2023-01-08T23:14:25.519Z,94273.16
2023-01-08T23:16:53.209Z,94165.03
2023-01-08T23:19:23.945Z,94260.75
2023-01-08T23:21:51.632Z,94297.25
2023-01-08T23:24:22.236Z,94327.63
2023-01-08T23:26:52.493Z,94238.78
2023-01-08T23:29:23.242Z,94327.50
2023-01-08T23:31:51.095Z,94253.31
2023-01-08T23:34:18.778Z,94320.50
2023-01-08T23:36:46.425Z,94248.59
2023-01-08T23:39:29.558Z,94320.63
2023-01-08T23:42:06.893Z,94309.47
2023-01-08T23:44:34.671Z,94315.41
2023-01-08T23:47:02.460Z,94285.31
2023-01-08T23:49:30.160Z,94310.41
2023-01-08T23:51:57.882Z,94295.97
2023-01-08T23:54:25.513Z,94292.16
2023-01-08T23:56:53.801Z,94318.50
2023-01-08T23:59:22.877Z,94333.63
